• Join FlightAware (Why Join?)
  • Login
  • US Flag 
09:02PM EDT


 

Airport Tracker/Info


-or-


 

Live Flight TrackerFlight Track Log ✈ EJA233 ✈ 03-May-2012 ✈ KTRM - KSMO

Flight Track Log - Related Links

Times and Time Zones

All times are in EDT time to prevent confusion due to time zone crossing. See the EJA233 flight status page for this flight to view local times or setup timezone preferences in your user account.

Time Position Orientation Groundspeed Altitude Reporting Facility
EDT Latitude Longitude Course Direction KTS MPH feet Rate Location/Type
03:30PM 33.6305 -116.1810 341° North  Level FlightAware Approximate
03:31PM 33.8000 -116.2500 320° Northwest 230 265 8,500  Level Southern California TRACON
03:32PM 33.8500 -116.3000 281° West 245 282 8,500 1,020 Level Southern California TRACON
03:33PM 33.8667 -116.4000 280° West 273 314 10,600 1,740 Climbing Southern California TRACON
03:34PM 33.8833 -116.5167 292° West 399 459 12,000 660 Climbing Southern California TRACON
03:35PM 33.9167 -116.6167 287° West 342 394 12,000 -60 Level Southern California TRACON
03:36PM 33.9500 -116.7500 270° West 406 467 11,900  Descending Southern California TRACON
03:37PM 33.9500 -116.9000 261° West 412 474 12,000 -240 Climbing Southern California TRACON
03:38PM 33.9333 -117.0333 285° West 419 482 11,500 -900 Descending Southern California TRACON
03:39PM 33.9667 -117.1833 280° West 408 470 10,300 -780 Descending Southern California TRACON
03:40PM 33.9833 -117.3000 306° West 382 440 10,000 -600 Descending Southern California TRACON
03:41PM 34.0333 -117.3833 296° West 301 346 9,200 -960 Descending Southern California TRACON
03:42PM 34.0667 -117.4667 270° West 269 310 8,000 -600 Descending Southern California TRACON
03:43PM 34.0667 -117.5667 270° West 251 289 8,000 -120 Level Southern California TRACON
03:44PM 34.0667 -117.6500 284° West 270 311 7,800 -960 Descending Southern California TRACON
03:45PM 34.0833 -117.7333 259° West 257 296 6,100 -1,020 Descending Southern California TRACON
03:46PM 34.0667 -117.8333 256° West 269 310 5,800 -780 Descending Southern California TRACON
03:47PM 34.0500 -117.9167 296° West 267 307 4,600 -900 Descending Southern California TRACON
03:48PM 34.0833 -118.0000 284° West 264 304 4,000 -300 Descending Southern California TRACON
03:49PM 34.1000 -118.0833 284° West 264 304 4,000  Level Southern California TRACON
03:50PM 34.1167 -118.1667 270° West 229 264 4,000  Level Southern California TRACON
03:51PM 34.1167 -118.2500 270° West 205 236 4,000 -480 Level Southern California TRACON
03:52PM 34.1167 -118.3167 231° Southwest 201 231 3,100 -720 Descending Southern California TRACON
03:53PM 34.0833 -118.3667 220° Southwest 184 212 2,600 -720 Descending Southern California TRACON
03:54PM 34.0500 -118.4000 239° Southwest 127 146 1,700 -960 Descending Southern California TRACON
03:55PM 34.0333 -118.4333 239° Southwest 120 138 700 -1,020 Descending Southern California TRACON